Autryville, NC

6:53 AM EDT on August 02, 2015 (GMT -0400)
Lakewood High School | | Change Station
CLOSE
Current Station
Personal Weather Station
Location: Salemburg, NC
Elevation: 180 ft
Nearby Weather Stations

Elev 180 ft 34.99 °N, 78.50 °W | Updated 1 minute ago

Partly Cloudy
Partly Cloudy
70.4 °F
Feels Like 70.4 °F
N
0.0
Wind Variable Wind from SSW
Gusts 0.0 mph

Today
High -- | Low -- °F
--% Chance of Precip.
Yesterday
High -- | Low -- °F
Precip. -- in
6:24 AM 8:16 PM
Waning Gibbous, 94% visible
Pressure 29.93 in
Visibility 0.5 miles
Clouds Overcast 100 ft
Dew Point 70 °F
Humidity 97%
Rainfall 0.00 in
Snow Depth Not available.
UV 0 out of 12
Pollen 4.00 out of 12
Air Quality Not available.
Flu Activity Not available.
METAR KCTZ 021035Z AUTO 00000KT 1/2SM FG OVC001 22/22 A2993 RMK AO2 T02230223

More Conditions Fewer Conditions

Pressure 29.93 in
Visibility 0.5 miles
Clouds Overcast 100 ft
Dew Point 70 °F
Humidity 97%
Rainfall 0.00 in
Snow Depth Not available.
UV 0 out of 12
Pollen 4.00 out of 12
Air Quality Not available.
Flu Activity Not available.
METAR KCTZ 021035Z AUTO 00000KT 1/2SM FG OVC001 22/22 A2993 RMK AO2 T02230223

More Conditions Fewer Conditions

10-Day Weather Forecast

×

Almanac

Astronomy

Aug. 02, 2015 Rise Set
Actual Time
Civil Twilight
Nautical Twilight
Astronomical Twilight
Moon
Length of Visible Light
Length of Day
Tomorrow will be .
, % of the Moon is Illuminated

Today's Extremes

State Highs State Lows

Community

WunderPhotos

Upload Photos

1,843,218 photos uploaded!

WunderBlogs® & News

Nearby

Air Quality

  Air Quality AQ Index Pollutant
Not available.

Snow Depth

Station Depth Elevation

Earthquake Activity

City Distance Mag. Time & Date
Minimum magnitude displayed is 2.5.

Coastal Water Temperatures

Place Temperature

Stations

Nearby Weather Stations

Station Location Temp. Windchill Dew Point Humidity Wind Precip. Elev Updated Type